Time;durP1;ratioP1;P1;durP2;ratioP2;P2;SDS_P1;SDS_P2;PMS_P1;PMS_P2;Temp;Humidity;BMP_temperature;BMP_pressure;BME280_temperature;BME280_humidity;BME280_pressure;Samples;Min_cycle;Max_cycle;Signal;HPM_P1;HPM_P2
2023/07/09 00:05:43;;;;;;;19.17;17.67;;;22.30;99.90;;;;;;2614388;54;20395;-71
2023/07/09 00:11:31;;;;;;;19.33;18.33;;;22.10;99.90;;;;;;2613385;54;20400;-71
2023/07/09 00:17:25;;;;;;;19.53;18.30;;;22.00;99.90;;;;;;2613796;54;20166;-72
2023/07/09 00:23:13;;;;;;;19.37;18.10;;;22.00;99.90;;;;;;2614340;54;20403;-71
2023/07/09 00:29:01;;;;;;;19.57;17.93;;;21.80;99.90;;;;;;2614348;54;20423;-71
2023/07/09 00:34:49;;;;;;;18.20;16.80;;;21.80;99.90;;;;;;2614462;54;20153;-71
2023/07/09 00:46:51;;;;;;;17.63;16.53;;;21.50;99.90;;;;;;2614082;54;20399;-71
2023/07/09 01:02:24;;;;;;;17.87;16.80;;;21.50;99.90;;;;;;2613982;54;20660;-71
2023/07/09 01:08:12;;;;;;;19.03;17.50;;;21.40;99.90;;;;;;2614412;39;20763;-72
2023/07/09 01:14:03;;;;;;;17.57;16.57;;;21.50;99.90;;;;;;2613805;54;20392;-72
2023/07/09 01:19:50;;;;;;;18.50;17.40;;;21.30;99.90;;;;;;2614205;54;20458;-71
2023/07/09 01:25:44;;;;;;;18.33;17.13;;;21.20;99.90;;;;;;2614006;54;20790;-72
2023/07/09 01:31:32;;;;;;;17.03;16.03;;;21.00;99.90;;;;;;2614141;54;20396;-72
2023/07/09 01:37:23;;;;;;;18.53;17.40;;;20.90;99.90;;;;;;2614356;54;20122;-72
2023/07/09 01:43:11;;;;;;;17.53;16.50;;;20.90;99.90;;;;;;2614279;54;21058;-72
2023/07/09 01:48:58;;;;;;;17.57;16.37;;;20.80;99.90;;;;;;2614262;54;20151;-72
2023/07/09 01:54:49;;;;;;;19.60;18.03;;;20.70;99.90;;;;;;2613821;46;20302;-72
2023/07/09 02:00:16;;;;;;;17.43;16.33;;;20.60;99.90;;;;;;2613595;54;20447;-72
2023/07/09 02:06:09;;;;;;;15.83;14.83;;;20.50;99.90;;;;;;2612552;54;20355;-71
2023/07/09 02:11:58;;;;;;;17.50;16.30;;;20.40;99.90;;;;;;2614083;54;20387;-72
2023/07/09 02:17:45;;;;;;;16.10;15.10;;;20.30;99.90;;;;;;2614652;54;20920;-72
2023/07/09 02:23:33;;;;;;;16.17;15.07;;;20.20;99.90;;;;;;2615211;46;20149;-72
2023/07/09 02:29:22;;;;;;;16.30;15.30;;;20.20;99.90;;;;;;2613837;54;20158;-72
2023/07/09 02:35:10;;;;;;;15.77;14.57;;;20.20;99.90;;;;;;2614634;54;20521;-71
2023/07/09 02:40:58;;;;;;;16.97;15.67;;;20.00;99.90;;;;;;2614696;54;20376;-70
2023/07/09 02:46:46;;;;;;;17.03;15.83;;;20.00;99.90;;;;;;2614441;54;20261;-70
2023/07/09 02:52:33;;;;;;;17.40;16.20;;;20.10;99.90;;;;;;2615359;54;20151;-70
2023/07/09 03:02:03;;;;;;;17.20;16.10;;;20.20;99.90;;;;;;2615649;39;20893;-70
2023/07/09 03:07:51;;;;;;;16.30;15.03;;;20.00;99.90;;;;;;2614674;54;20412;-70
2023/07/09 03:13:38;;;;;;;16.60;15.10;;;19.90;99.90;;;;;;2615351;54;20134;-71
2023/07/09 03:19:26;;;;;;;15.20;13.93;;;19.90;99.90;;;;;;2614830;54;20741;-71
2023/07/09 03:25:14;;;;;;;14.80;13.80;;;19.70;99.90;;;;;;2614278;39;20591;-71
2023/07/09 03:31:01;;;;;;;15.20;14.20;;;19.70;99.90;;;;;;2614251;54;20134;-70
2023/07/09 03:36:49;;;;;;;15.90;14.47;;;19.60;99.90;;;;;;2614124;54;20134;-70
2023/07/09 03:42:36;;;;;;;15.07;14.00;;;19.60;99.90;;;;;;2613935;54;20150;-70
2023/07/09 03:48:25;;;;;;;16.20;14.90;;;19.60;99.90;;;;;;2613603;46;20150;-70
2023/07/09 03:54:14;;;;;;;14.77;13.67;;;19.60;99.90;;;;;;2614092;54;20423;-70
2023/07/09 03:57:29;;;;;;;14.93;13.73;;;19.60;99.90;;;;;;2614335;54;20432;-70
2023/07/09 03:59:54;;;;;;;15.13;13.90;;;19.60;99.90;;;;;;2613803;54;20515;-70
2023/07/09 04:05:42;;;;;;;15.33;14.10;;;19.60;99.90;;;;;;2614240;54;20683;-70
2023/07/09 04:11:30;;;;;;;14.07;13.17;;;19.80;99.90;;;;;;2613492;54;20180;-72
2023/07/09 04:17:18;;;;;;;15.20;14.13;;;19.90;99.90;;;;;;2613756;54;20131;-71
2023/07/09 04:23:06;;;;;;;15.70;14.50;;;20.10;99.90;;;;;;2614172;54;20126;-70
2023/07/09 04:28:53;;;;;;;15.13;13.37;;;20.40;99.90;;;;;;2612720;54;20420;-71
2023/07/09 04:34:42;;;;;;;15.23;14.07;;;20.70;99.90;;;;;;2613761;39;21355;-71
2023/07/09 04:40:30;;;;;;;15.60;14.30;;;20.90;99.90;;;;;;2613902;54;20433;-71
2023/07/09 04:46:17;;;;;;;14.70;13.60;;;21.10;99.90;;;;;;2612378;54;20126;-69
2023/07/09 04:52:05;;;;;;;16.00;14.90;;;21.30;99.90;;;;;;2613715;54;20190;-70
2023/07/09 05:02:12;;;;;;;17.07;15.87;;;21.90;99.90;;;;;;2612628;54;20415;-83
2023/07/09 05:07:59;;;;;;;17.20;15.63;;;22.50;99.90;;;;;;2614152;54;20978;-82
2023/07/09 05:13:47;;;;;;;15.90;14.70;;;23.00;99.90;;;;;;2615404;54;20182;-82
2023/07/09 05:19:35;;;;;;;16.63;15.53;;;23.30;99.90;;;;;;2615314;54;20182;-82
2023/07/09 05:25:23;;;;;;;17.83;16.53;;;23.50;99.90;;;;;;2615456;54;20502;-81
2023/07/09 05:31:10;;;;;;;18.63;17.23;;;24.30;99.90;;;;;;2615027;39;20408;-83
2023/07/09 05:34:14;;;;;;;17.10;15.90;;;24.60;99.90;;;;;;2614110;47;20413;-83
2023/07/09 05:36:39;;;;;;;19.43;18.03;;;24.80;99.90;;;;;;2613951;47;20162;-83
2023/07/09 05:42:27;;;;;;;18.33;17.27;;;25.00;99.90;;;;;;2614902;54;20134;-82
2023/07/09 05:48:15;;;;;;;18.60;17.30;;;25.40;99.90;;;;;;2614847;54;20799;-84
2023/07/09 05:54:03;;;;;;;17.93;16.73;;;26.00;99.90;;;;;;2615335;54;20282;-84
2023/07/09 06:03:14;;;;;;;18.30;17.10;;;27.20;99.90;;;;;;2614183;54;20571;-83
2023/07/09 06:09:02;;;;;;;18.10;16.77;;;27.10;99.90;;;;;;2615281;54;20414;-83
2023/07/09 06:14:49;;;;;;;18.20;16.90;;;27.40;99.90;;;;;;2615579;39;20542;-83
2023/07/09 06:20:38;;;;;;;18.90;17.17;;;27.50;99.90;;;;;;2612443;54;20151;-82
2023/07/09 06:26:26;;;;;;;17.70;16.70;;;27.60;99.90;;;;;;2614781;54;20399;-82
2023/07/09 06:32:14;;;;;;;18.30;17.10;;;27.90;99.00;;;;;;2614905;54;20133;-83
2023/07/09 06:38:02;;;;;;;18.07;16.87;;;28.50;91.90;;;;;;2614325;54;20818;-84
2023/07/09 06:43:50;;;;;;;18.30;17.23;;;28.10;95.80;;;;;;2614872;54;20201;-82
2023/07/09 06:49:38;;;;;;;17.90;16.70;;;28.90;94.00;;;;;;2616263;31;20589;-83
2023/07/09 06:55:26;;;;;;;18.83;17.73;;;29.60;80.90;;;;;;2616345;54;20122;-83
2023/07/09 06:58:45;;;;;;;17.67;16.77;;;29.30;82.10;;;;;;2615278;47;20798;-83
2023/07/09 07:01:12;;;;;;;18.63;17.53;;;29.70;71.60;;;;;;2614804;39;20240;-81
2023/07/09 07:07:00;;;;;;;19.10;17.90;;;29.90;67.50;;;;;;2614432;54;20411;-78
2023/07/09 07:12:49;;;;;;;18.63;17.23;;;30.40;53.00;;;;;;2614661;54;21041;-78
2023/07/09 07:18:37;;;;;;;19.73;18.13;;;30.80;47.90;;;;;;2614538;54;20392;-77
2023/07/09 07:24:25;;;;;;;18.33;17.07;;;30.50;51.70;;;;;;2614955;39;20869;-79
2023/07/09 07:30:13;;;;;;;18.80;17.40;;;30.80;50.60;;;;;;2614587;54;20166;-79
2023/07/09 07:36:04;;;;;;;19.10;18.07;;;32.80;35.10;;;;;;2613261;54;20512;-79
2023/07/09 07:41:52;;;;;;;18.73;17.20;;;30.70;39.40;;;;;;2615083;54;20402;-80
2023/07/09 07:47:40;;;;;;;19.20;17.90;;;31.30;36.30;;;;;;2615217;54;20146;-78
2023/07/09 07:53:30;;;;;;;19.53;18.40;;;31.50;30.20;;;;;;2614042;54;20388;-79
2023/07/09 08:03:14;;;;;;;18.40;17.13;;;33.10;22.80;;;;;;2614974;54;21054;-79
2023/07/09 08:09:02;;;;;;;18.47;17.33;;;32.40;24.00;;;;;;2612567;54;20400;-79
2023/07/09 08:14:50;;;;;;;20.43;19.13;;;32.40;22.20;;;;;;2614040;54;20431;-79
2023/07/09 08:20:42;;;;;;;19.20;18.10;;;33.40;17.00;;;;;;2612955;54;20167;-80
2023/07/09 08:26:31;;;;;;;20.43;19.03;;;33.90;14.70;;;;;;2615108;54;20397;-79
2023/07/09 08:32:19;;;;;;;19.70;18.50;;;34.60;10.80;;;;;;2613536;54;20374;-78
2023/07/09 08:38:06;;;;;;;20.23;18.90;;;33.90;11.30;;;;;;2615047;54;20138;-79
2023/07/09 08:56:46;;;;;;;18.00;17.00;;;35.10;1.00;;;;;;2615360;54;20963;-79
2023/07/09 09:06:03;;;;;;;19.73;18.50;;;34.80;5.70;;;;;;2612963;54;20497;-78
2023/07/09 09:31:28;;;;;;;16.90;15.80;;;35.20;1.00;;;;;;2614381;54;20420;-79
2023/07/09 09:43:54;;;;;;;19.27;17.87;;;36.00;1.00;;;;;;2612286;54;20457;-81
2023/07/09 09:49:43;;;;;;;17.37;16.53;;;36.10;1.00;;;;;;2613507;54;20970;-80
2023/07/09 09:55:32;;;;;;;18.20;17.20;;;37.10;1.00;;;;;;2614480;54;20498;-80
2023/07/09 10:01:25;;;;;;;18.13;16.93;;;35.80;1.00;;;;;;2613286;54;20392;-80
2023/07/09 10:13:55;;;;;;;17.43;16.37;;;36.10;1.00;;;;;;2612035;39;20594;-80
2023/07/09 10:39:28;;;;;;;17.47;16.43;;;37.00;1.00;;;;;;2614797;54;20375;-82
2023/07/09 10:51:37;;;;;;;17.23;16.33;;;37.60;1.00;;;;;;2616866;39;20852;-82
2023/07/09 10:57:29;;;;;;;17.03;16.23;;;37.40;1.00;;;;;;2617051;54;20410;-82
2023/07/09 11:06:46;;;;;;;16.17;15.30;;;37.70;1.00;;;;;;2616583;54;21071;-82
2023/07/09 11:18:58;;;;;;;16.10;15.30;;;38.30;1.00;;;;;;2615435;39;20784;-82
2023/07/09 11:24:51;;;;;;;15.80;14.73;;;36.80;1.00;;;;;;2616106;54;20413;-84
2023/07/09 11:30:54;;;;;;;16.13;15.43;;;36.80;1.00;;;;;;2618353;54;20428;-83
2023/07/09 11:33:57;;;;;;;16.00;15.10;;;37.30;1.00;;;;;;2613191;54;20412;-85
2023/07/09 11:36:28;;;;;;;16.30;15.17;;;38.30;1.00;;;;;;2615922;54;20429;-83
2023/07/09 11:42:32;;;;;;;15.80;15.03;;;38.10;1.00;;;;;;2617866;54;21016;-83
2023/07/09 11:48:27;;;;;;;16.80;15.80;;;37.80;1.00;;;;;;2618948;54;20413;-84
2023/07/09 11:54:15;;;;;;;15.60;14.90;;;37.90;1.00;;;;;;2617516;54;20558;-83
2023/07/09 12:00:03;;;;;;;16.60;15.80;;;37.70;1.00;;;;;;2616968;54;20135;-83
2023/07/09 12:09:19;;;;;;;16.33;15.53;;;38.60;1.00;;;;;;2619298;54;20942;-83
2023/07/09 12:21:46;;;;;;;16.20;15.20;;;37.70;1.00;;;;;;2618828;54;20485;-83
2023/07/09 12:27:37;;;;;;;16.67;15.77;;;37.90;1.00;;;;;;2616572;54;20382;-83
2023/07/09 12:33:28;;;;;;;16.30;15.50;;;37.40;1.00;;;;;;2616016;54;20406;-83
2023/07/09 12:45:53;;;;;;;16.93;15.87;;;37.90;1.00;;;;;;2613985;54;20430;-77
2023/07/09 12:51:42;;;;;;;16.27;15.47;;;38.00;1.00;;;;;;2613629;54;20502;-79
2023/07/09 12:57:30;;;;;;;17.40;16.30;;;37.20;1.00;;;;;;2616395;54;20398;-83
2023/07/09 13:09:34;;;;;;;17.50;16.30;;;36.60;1.00;;;;;;2613999;54;20960;-79
2023/07/09 13:22:19;;;;;;;17.47;16.43;;;36.40;1.00;;;;;;2612920;54;21023;-78
2023/07/09 13:34:53;;;;;;;16.83;15.60;;;36.20;1.00;;;;;;2612865;54;20969;-79
2023/07/09 13:40:42;;;;;;;19.10;17.80;;;35.60;1.00;;;;;;2613118;54;20736;-80
2023/07/09 13:46:29;;;;;;;18.10;17.20;;;35.30;1.00;;;;;;2612238;54;21006;-81
2023/07/09 13:52:20;;;;;;;17.77;16.87;;;34.80;1.00;;;;;;2613736;54;20236;-79
2023/07/09 13:58:12;;;;;;;17.60;16.43;;;34.50;1.00;;;;;;2613555;54;20488;-80
2023/07/09 14:03:59;;;;;;;18.03;17.13;;;33.90;1.00;;;;;;2613184;54;20425;-80
2023/07/09 14:13:15;;;;;;;18.20;17.20;;;33.60;1.00;;;;;;2614432;54;20450;-80
2023/07/09 14:19:02;;;;;;;19.97;18.77;;;33.10;1.00;;;;;;2616543;31;20857;-81
2023/07/09 14:24:51;;;;;;;19.43;18.33;;;32.30;1.80;;;;;;2615048;54;20138;-80
2023/07/09 14:30:40;;;;;;;19.00;17.50;;;31.90;16.70;;;;;;2615970;54;20420;-80
2023/07/09 14:36:28;;;;;;;14.30;12.80;;;30.50;77.30;;;;;;2616529;54;20388;-85
2023/07/09 14:42:16;;;;;;;17.67;16.57;;;25.40;99.90;;;;;;2618097;54;20168;-85
2023/07/09 14:48:16;;;;;;;21.60;19.90;;;24.20;99.90;;;;;;2615998;54;20272;-84
2023/07/09 15:00:25;;;;;;;14.20;8.70;;;23.60;99.90;;;;;;2615932;54;21250;-80
2023/07/09 15:06:13;;;;;;;14.17;7.87;;;22.20;99.90;;;;;;2613548;54;20926;-81
2023/07/09 15:15:31;;;;;;;7.10;6.40;;;21.10;99.90;;;;;;2613783;54;20423;-81
2023/07/09 15:21:19;;;;;;;10.20;7.70;;;21.50;99.90;;;;;;2615901;46;20415;-81
2023/07/09 15:27:08;;;;;;;11.27;8.07;;;20.40;99.90;;;;;;2614034;39;20853;-83
2023/07/09 15:32:59;;;;;;;14.00;8.70;;;20.50;99.90;;;;;;2615340;54;20412;-84
2023/07/09 15:38:47;;;;;;;11.13;8.07;;;20.50;99.90;;;;;;2614169;54;20779;-80
2023/07/09 15:44:35;;;;;;;11.43;9.40;;;20.50;99.90;;;;;;2614187;54;20243;-80
2023/07/09 15:50:27;;;;;;;12.10;10.37;;;20.60;99.90;;;;;;2614213;39;20581;-82
2023/07/09 15:56:26;;;;;;;12.53;10.60;;;20.90;99.90;;;;;;2613877;54;20399;-86
2023/07/09 16:02:15;;;;;;;14.53;10.47;;;20.90;99.90;;;;;;2615015;54;20411;-87
2023/07/09 16:08:03;;;;;;;11.70;9.00;;;20.80;99.90;;;;;;2616296;39;20783;-87
2023/07/09 16:10:47;;;;;;;13.40;10.90;;;20.70;99.90;;;;;;2614920;54;20416;-86
2023/07/09 16:13:23;;;;;;;10.77;9.70;;;20.80;99.90;;;;;;2615239;54;20407;-88
2023/07/09 16:19:12;;;;;;;10.70;9.67;;;20.80;99.90;;;;;;2614955;54;20937;-88
2023/07/09 16:25:00;;;;;;;14.03;10.00;;;20.90;99.90;;;;;;2621820;54;20969;-87
2023/07/09 16:30:50;;;;;;;11.00;9.90;;;20.90;99.90;;;;;;2615226;54;20214;-87
2023/07/09 16:36:39;;;;;;;11.13;10.03;;;21.00;99.90;;;;;;2616096;54;20492;-86
2023/07/09 16:42:28;;;;;;;16.30;12.53;;;21.20;99.90;;;;;;2616270;54;20423;-88
2023/07/09 16:48:24;;;;;;;14.67;11.50;;;21.40;99.90;;;;;;2615875;54;20391;-88
2023/07/09 16:54:13;;;;;;;13.70;11.10;;;21.80;99.90;;;;;;2614494;54;20380;-86
2023/07/09 17:00:25;;;;;;;13.43;12.20;;;21.70;99.90;;;;;;2614225;54;20408;-86
2023/07/09 17:06:12;;;;;;;12.50;11.47;;;22.10;99.90;;;;;;2615567;39;20820;-87
2023/07/09 17:15:25;;;;;;;14.40;12.97;;;22.30;99.90;;;;;;2614970;39;20795;-85
2023/07/09 17:21:17;;;;;;;15.73;14.30;;;22.10;99.90;;;;;;2613626;54;20412;-85
2023/07/09 17:27:08;;;;;;;16.13;14.63;;;22.10;99.90;;;;;;2612772;54;20403;-85
2023/07/09 17:32:58;;;;;;;15.97;13.83;;;22.10;99.90;;;;;;2616077;54;21001;-86
2023/07/09 17:36:02;;;;;;;15.40;14.00;;;22.20;99.90;;;;;;2614449;54;20422;-86
2023/07/09 17:38:34;;;;;;;15.80;13.70;;;22.00;99.90;;;;;;2615310;47;20423;-86
2023/07/09 17:44:24;;;;;;;13.83;12.77;;;22.50;99.90;;;;;;2614538;54;20961;-85
2023/07/09 17:56:29;;;;;;;12.77;11.77;;;22.70;99.90;;;;;;2614797;54;21123;-86
2023/07/09 18:02:30;;;;;;;13.77;12.50;;;22.80;99.90;;;;;;2614927;54;20412;-87
2023/07/09 18:08:18;;;;;;;12.93;11.73;;;22.70;99.90;;;;;;2614714;54;20426;-86
2023/07/09 18:10:53;;;;;;;14.17;12.87;;;22.80;99.90;;;;;;2614595;47;20427;-86
2023/07/09 18:13:22;;;;;;;13.87;12.60;;;22.90;99.90;;;;;;2614884;47;20186;-87
2023/07/09 18:25:46;;;;;;;14.27;12.77;;;22.70;99.90;;;;;;2615853;54;20410;-86
2023/07/09 18:31:34;;;;;;;17.07;15.30;;;22.80;99.90;;;;;;2613313;54;21048;-85
2023/07/09 18:37:23;;;;;;;16.97;14.97;;;22.80;99.90;;;;;;2614905;54;20506;-86
2023/07/09 18:43:16;;;;;;;18.87;17.20;;;22.80;99.90;;;;;;2615368;54;20452;-86
2023/07/09 18:49:06;;;;;;;22.63;18.43;;;22.70;99.90;;;;;;2613867;54;20395;-84
2023/07/09 18:54:54;;;;;;;20.20;18.30;;;22.70;99.90;;;;;;2616677;54;20403;-85
2023/07/09 19:00:42;;;;;;;16.50;14.87;;;22.70;99.90;;;;;;2615413;54;20384;-86
2023/07/09 19:06:30;;;;;;;21.63;16.90;;;22.50;99.90;;;;;;2614822;54;20154;-85
2023/07/09 19:15:41;;;;;;;20.80;18.93;;;22.40;99.90;;;;;;2615224;54;20399;-85
2023/07/09 19:21:31;;;;;;;26.60;24.10;;;22.20;99.90;;;;;;2614296;54;20371;-87
2023/07/09 19:27:20;;;;;;;27.23;24.63;;;22.10;99.90;;;;;;2616725;54;20919;-86
2023/07/09 19:39:39;;;;;;;28.27;25.40;;;22.10;99.90;;;;;;2614563;54;20432;-86
2023/07/09 19:45:36;;;;;;;29.27;26.40;;;22.00;99.90;;;;;;2615477;54;20462;-86
2023/07/09 19:51:24;;;;;;;33.40;30.20;;;21.90;99.90;;;;;;2616014;54;20411;-86
2023/07/09 19:57:13;;;;;;;36.97;33.17;;;21.90;99.90;;;;;;2615209;54;20476;-84
2023/07/09 20:03:02;;;;;;;35.70;32.00;;;21.90;99.90;;;;;;2616148;54;20389;-85
2023/07/09 20:08:50;;;;;;;28.10;25.30;;;21.80;99.90;;;;;;2616809;54;20395;-86
2023/07/09 20:18:01;;;;;;;25.40;22.97;;;21.50;99.90;;;;;;2616425;54;20422;-82
2023/07/09 20:23:50;;;;;;;26.37;23.87;;;21.60;99.90;;;;;;2617129;54;20937;-84
2023/07/09 20:29:38;;;;;;;26.57;23.87;;;21.50;99.90;;;;;;2616008;54;20926;-82
2023/07/09 20:35:26;;;;;;;25.80;23.50;;;21.50;99.90;;;;;;2616595;54;20957;-82
2023/07/09 20:41:19;;;;;;;26.87;24.37;;;21.50;99.90;;;;;;2616773;54;20439;-82
2023/07/09 20:47:20;;;;;;;24.70;22.50;;;21.40;99.90;;;;;;2618238;54;20427;-82
2023/07/09 20:53:11;;;;;;;26.27;23.50;;;21.30;99.90;;;;;;2617754;31;20904;-82
2023/07/09 20:58:59;;;;;;;25.77;23.47;;;21.30;99.90;;;;;;2614262;54;20400;-84
2023/07/09 21:04:47;;;;;;;26.60;23.70;;;21.20;99.90;;;;;;2615071;54;20696;-83
2023/07/09 21:10:35;;;;;;;24.60;22.40;;;21.10;99.90;;;;;;2617771;54;20464;-82
2023/07/09 21:13:23;;;;;;;25.90;23.37;;;21.10;99.90;;;;;;2616255;47;20416;-82
2023/07/09 21:22:24;;;;;;;23.77;21.57;;;21.10;99.90;;;;;;2618437;39;20717;-83
2023/07/09 21:28:13;;;;;;;24.83;20.00;;;20.90;99.90;;;;;;2619872;31;20875;-82
2023/07/09 21:34:01;;;;;;;23.70;21.40;;;20.90;99.90;;;;;;2619123;54;20403;-80
2023/07/09 21:39:49;;;;;;;19.63;17.83;;;20.80;99.90;;;;;;2621326;39;20706;-83
2023/07/09 21:45:40;;;;;;;20.57;18.57;;;20.70;99.90;;;;;;2624649;54;20404;-80
2023/07/09 21:51:29;;;;;;;19.30;17.50;;;20.60;99.90;;;;;;2626842;54;20443;-79
2023/07/09 21:57:18;;;;;;;20.93;18.20;;;20.50;99.90;;;;;;2617420;54;20433;-80
2023/07/09 22:03:11;;;;;;;28.33;17.93;;;20.40;99.90;;;;;;2616060;54;20440;-80
2023/07/09 22:08:59;;;;;;;18.80;16.40;;;20.40;99.90;;;;;;2616000;54;20975;-77
2023/07/09 22:18:18;;;;;;;21.10;17.73;;;20.40;99.90;;;;;;2614837;54;21001;-78
2023/07/09 22:24:11;;;;;;;20.40;17.20;;;20.20;99.90;;;;;;2615496;54;20403;-82
2023/07/09 22:29:58;;;;;;;18.93;17.03;;;20.20;99.90;;;;;;2615547;54;20399;-82
2023/07/09 22:35:46;;;;;;;23.93;16.87;;;20.20;99.90;;;;;;2615088;54;20167;-82
2023/07/09 22:41:34;;;;;;;19.40;17.40;;;20.20;99.90;;;;;;2616526;54;20426;-81
2023/07/09 22:47:22;;;;;;;19.70;17.27;;;20.10;99.90;;;;;;2616633;54;20178;-81
2023/07/09 22:53:13;;;;;;;19.50;17.47;;;20.10;99.90;;;;;;2616639;54;20444;-81
2023/07/09 22:59:01;;;;;;;20.13;18.13;;;20.10;99.90;;;;;;2616540;54;20391;-81
2023/07/09 23:04:49;;;;;;;22.80;20.50;;;20.20;99.90;;;;;;2616014;54;20163;-81
2023/07/09 23:10:37;;;;;;;22.90;20.63;;;20.20;99.90;;;;;;2615340;54;20976;-80
2023/07/09 23:16:44;;;;;;;27.40;23.07;;;20.10;99.90;;;;;;2614261;54;20954;-82
2023/07/09 23:19:47;;;;;;;22.43;20.10;;;20.00;99.90;;;;;;2613551;54;20422;-81
2023/07/09 23:22:13;;;;;;;24.87;22.30;;;20.00;99.90;;;;;;2612341;54;20447;-81
2023/07/09 23:28:02;;;;;;;24.50;21.97;;;19.90;99.90;;;;;;2614790;54;20130;-81
2023/07/09 23:33:49;;;;;;;22.93;20.53;;;19.80;99.90;;;;;;2614310;54;20434;-81
2023/07/09 23:39:36;;;;;;;26.20;23.33;;;19.90;99.90;;;;;;2614164;54;20173;-81
2023/07/09 23:45:24;;;;;;;29.43;24.60;;;20.00;99.90;;;;;;2612870;54;20164;-80
2023/07/09 23:51:13;;;;;;;28.37;25.10;;;19.80;99.90;;;;;;2615566;54;20407;-82
2023/07/09 23:57:01;;;;;;;27.27;24.67;;;19.90;99.90;;;;;;2615810;47;20447;-82
